sensor_id;sensor_type;location;lat;lon;timestamp;pressure;altitude;pressure_sealevel;temperature;humidity
75063;BME280;63981;51.052;13.754;2023-02-21T00:01:57;100333.91;;;10.61;65.11
75063;BME280;63981;51.052;13.754;2023-02-21T00:04:42;100338.41;;;10.32;66.80
75063;BME280;63981;51.052;13.754;2023-02-21T00:07:28;100306.28;;;10.40;65.82
75063;BME280;63981;51.052;13.754;2023-02-21T00:10:14;100255.41;;;9.84;66.33
75063;BME280;63981;51.052;13.754;2023-02-21T00:12:59;100336.97;;;10.41;66.58
75063;BME280;63981;51.052;13.754;2023-02-21T00:15:44;100342.44;;;10.38;66.38
75063;BME280;63981;51.052;13.754;2023-02-21T00:18:34;100310.13;;;10.49;65.04
75063;BME280;63981;51.052;13.754;2023-02-21T00:21:19;100288.19;;;10.21;66.02
75063;BME280;63981;51.052;13.754;2023-02-21T00:24:04;100323.66;;;10.30;66.91
75063;BME280;63981;51.052;13.754;2023-02-21T00:26:49;100332.66;;;10.67;65.95
75063;BME280;63981;51.052;13.754;2023-02-21T00:29:34;100284.88;;;10.32;65.97
75063;BME280;63981;51.052;13.754;2023-02-21T00:32:18;100330.94;;;10.39;66.58
75063;BME280;63981;51.052;13.754;2023-02-21T00:35:03;100336.91;;;10.43;66.09
75063;BME280;63981;51.052;13.754;2023-02-21T00:37:51;100331.06;;;10.38;66.92
75063;BME280;63981;51.052;13.754;2023-02-21T00:40:37;100334.59;;;10.51;66.63
75063;BME280;63981;51.052;13.754;2023-02-21T00:43:33;100306.44;;;10.10;67.75
75063;BME280;63981;51.052;13.754;2023-02-21T00:46:18;100325.91;;;10.22;67.82
75063;BME280;63981;51.052;13.754;2023-02-21T00:49:04;100251.38;;;9.79;67.17
75063;BME280;63981;51.052;13.754;2023-02-21T00:51:49;100327.53;;;10.51;66.16
75063;BME280;63981;51.052;13.754;2023-02-21T00:54:34;100319.22;;;10.30;67.12
75063;BME280;63981;51.052;13.754;2023-02-21T00:57:20;100268.94;;;9.92;66.68
75063;BME280;63981;51.052;13.754;2023-02-21T01:00:16;100318.84;;;10.22;67.20
75063;BME280;63981;51.052;13.754;2023-02-21T01:03:01;100323.63;;;10.44;66.40
75063;BME280;63981;51.052;13.754;2023-02-21T01:05:46;100263.97;;;10.15;65.85
75063;BME280;63981;51.052;13.754;2023-02-21T01:08:31;100252.06;;;10.23;65.28
75063;BME280;63981;51.052;13.754;2023-02-21T01:11:18;100300.06;;;10.41;65.72
75063;BME280;63981;51.052;13.754;2023-02-21T01:14:04;100294.69;;;10.57;65.35
75063;BME280;63981;51.052;13.754;2023-02-21T01:16:49;100249.69;;;10.19;65.56
75063;BME280;63981;51.052;13.754;2023-02-21T01:19:33;100277.41;;;10.39;65.24
75063;BME280;63981;51.052;13.754;2023-02-21T01:22:18;100221.13;;;9.98;65.42
75063;BME280;63981;51.052;13.754;2023-02-21T01:25:04;100286.91;;;10.41;65.86
75063;BME280;63981;51.052;13.754;2023-02-21T01:27:52;100253.59;;;10.40;65.39
75063;BME280;63981;51.052;13.754;2023-02-21T01:30:37;100221.03;;;10.00;65.12
75063;BME280;63981;51.052;13.754;2023-02-21T01:33:22;100293.13;;;10.40;65.84
75063;BME280;63981;51.052;13.754;2023-02-21T01:36:08;100285.97;;;10.42;65.54
75063;BME280;63981;51.052;13.754;2023-02-21T01:38:54;100284.31;;;10.54;65.01
75063;BME280;63981;51.052;13.754;2023-02-21T01:41:39;100248.59;;;10.09;65.59
75063;BME280;63981;51.052;13.754;2023-02-21T01:44:34;100223.63;;;10.14;65.59
75063;BME280;63981;51.052;13.754;2023-02-21T01:47:20;100211.22;;;10.16;65.06
75063;BME280;63981;51.052;13.754;2023-02-21T01:50:12;100280.72;;;10.28;66.27
75063;BME280;63981;51.052;13.754;2023-02-21T01:53:00;100256.91;;;10.44;65.16
75063;BME280;63981;51.052;13.754;2023-02-21T01:55:46;100274.03;;;10.63;64.77
75063;BME280;63981;51.052;13.754;2023-02-21T01:58:32;100278.66;;;10.60;65.48
75063;BME280;63981;51.052;13.754;2023-02-21T02:01:26;100251.38;;;10.34;65.28
75063;BME280;63981;51.052;13.754;2023-02-21T02:04:12;100274.13;;;10.62;65.39
75063;BME280;63981;51.052;13.754;2023-02-21T02:06:58;100257.19;;;10.79;65.17
75063;BME280;63981;51.052;13.754;2023-02-21T02:09:42;100274.97;;;10.62;65.74
75063;BME280;63981;51.052;13.754;2023-02-21T02:12:44;100210.91;;;10.21;65.86
75063;BME280;63981;51.052;13.754;2023-02-21T02:21:09;100256.41;;;10.64;65.53
75063;BME280;63981;51.052;13.754;2023-02-21T02:23:45;100250.41;;;10.62;65.79
75063;BME280;63981;51.052;13.754;2023-02-21T02:26:40;100262.31;;;10.55;65.79
75063;BME280;63981;51.052;13.754;2023-02-21T02:35:39;100249.78;;;10.58;66.10
75063;BME280;63981;51.052;13.754;2023-02-21T02:38:27;100193.66;;;10.44;65.72
75063;BME280;63981;51.052;13.754;2023-02-21T02:41:04;100219.81;;;10.59;65.95
75063;BME280;63981;51.052;13.754;2023-02-21T02:43:41;100192.44;;;10.35;66.09
75063;BME280;63981;51.052;13.754;2023-02-21T02:46:16;100207.56;;;10.46;65.73
75063;BME280;63981;51.052;13.754;2023-02-21T02:51:24;100231.84;;;10.63;65.58
75063;BME280;63981;51.052;13.754;2023-02-21T02:53:51;100220.91;;;10.70;65.84
75063;BME280;63981;51.052;13.754;2023-02-21T02:56:17;100208.47;;;10.32;65.99
75063;BME280;63981;51.052;13.754;2023-02-21T03:07:01;100235.31;;;10.64;66.47
75063;BME280;63981;51.052;13.754;2023-02-21T03:09:50;100236.78;;;10.28;67.05
75063;BME280;63981;51.052;13.754;2023-02-21T03:15:16;100142.09;;;9.86;67.43
75063;BME280;63981;51.052;13.754;2023-02-21T03:17:50;100235.44;;;10.62;66.92
75063;BME280;63981;51.052;13.754;2023-02-21T03:20:19;100225.72;;;10.63;66.41
75063;BME280;63981;51.052;13.754;2023-02-21T03:22:47;100210.09;;;10.47;66.66
75063;BME280;63981;51.052;13.754;2023-02-21T03:25:14;100227.13;;;10.69;66.78
75063;BME280;63981;51.052;13.754;2023-02-21T03:27:46;100173.56;;;10.28;66.75
75063;BME280;63981;51.052;13.754;2023-02-21T03:30:19;100218.25;;;10.57;67.36
75063;BME280;63981;51.052;13.754;2023-02-21T03:32:50;100219.25;;;10.42;67.80
75063;BME280;63981;51.052;13.754;2023-02-21T03:35:19;100219.50;;;10.64;67.56
75063;BME280;63981;51.052;13.754;2023-02-21T03:37:51;100226.00;;;10.46;67.39
75063;BME280;63981;51.052;13.754;2023-02-21T03:40:29;100224.03;;;10.62;67.64
75063;BME280;63981;51.052;13.754;2023-02-21T03:43:00;100208.97;;;10.64;66.96
75063;BME280;63981;51.052;13.754;2023-02-21T03:45:30;100205.69;;;10.60;67.58
75063;BME280;63981;51.052;13.754;2023-02-21T03:48:08;100214.09;;;10.53;67.36
75063;BME280;63981;51.052;13.754;2023-02-21T03:50:36;100180.38;;;10.45;67.25
75063;BME280;63981;51.052;13.754;2023-02-21T03:53:03;100223.34;;;10.73;67.74
75063;BME280;63981;51.052;13.754;2023-02-21T03:55:30;100221.69;;;10.84;66.91
75063;BME280;63981;51.052;13.754;2023-02-21T03:57:58;100224.91;;;10.75;67.43
75063;BME280;63981;51.052;13.754;2023-02-21T04:00:24;100220.69;;;10.60;67.68
75063;BME280;63981;51.052;13.754;2023-02-21T04:02:53;100177.09;;;10.42;67.88
75063;BME280;63981;51.052;13.754;2023-02-21T04:05:30;100202.94;;;10.49;67.93
75063;BME280;63981;51.052;13.754;2023-02-21T04:07:56;100181.66;;;10.25;67.97
75063;BME280;63981;51.052;13.754;2023-02-21T04:10:23;100214.34;;;10.62;67.54
75063;BME280;63981;51.052;13.754;2023-02-21T04:12:49;100215.22;;;10.76;67.38
75063;BME280;63981;51.052;13.754;2023-02-21T04:15:15;100223.34;;;10.73;67.31
75063;BME280;63981;51.052;13.754;2023-02-21T04:17:42;100221.41;;;10.62;68.28
75063;BME280;63981;51.052;13.754;2023-02-21T04:20:09;100173.16;;;10.34;68.23
75063;BME280;63981;51.052;13.754;2023-02-21T04:22:41;100226.25;;;10.55;68.26
75063;BME280;63981;51.052;13.754;2023-02-21T04:25:07;100159.56;;;10.14;68.67
75063;BME280;63981;51.052;13.754;2023-02-21T04:27:40;100222.16;;;10.64;68.37
75063;BME280;63981;51.052;13.754;2023-02-21T04:30:07;100222.50;;;10.72;67.97
75063;BME280;63981;51.052;13.754;2023-02-21T04:32:33;100181.75;;;10.51;67.98
75063;BME280;63981;51.052;13.754;2023-02-21T04:35:05;100157.41;;;10.20;68.38
75063;BME280;63981;51.052;13.754;2023-02-21T04:37:32;100226.72;;;10.75;68.64
75063;BME280;63981;51.052;13.754;2023-02-21T04:39:58;100165.69;;;10.41;68.52
75063;BME280;63981;51.052;13.754;2023-02-21T04:42:24;100175.94;;;10.46;68.92
75063;BME280;63981;51.052;13.754;2023-02-21T04:44:51;100140.34;;;10.26;68.73
75063;BME280;63981;51.052;13.754;2023-02-21T04:47:17;100214.91;;;10.80;68.30
75063;BME280;63981;51.052;13.754;2023-02-21T04:49:44;100215.34;;;10.87;68.03
75063;BME280;63981;51.052;13.754;2023-02-21T04:52:17;100216.38;;;10.72;69.11
75063;BME280;63981;51.052;13.754;2023-02-21T04:54:46;100229.88;;;10.80;69.16
75063;BME280;63981;51.052;13.754;2023-02-21T04:57:13;100196.53;;;10.66;68.38
75063;BME280;63981;51.052;13.754;2023-02-21T04:59:40;100234.50;;;10.76;68.87
75063;BME280;63981;51.052;13.754;2023-02-21T05:02:07;100224.38;;;10.57;69.77
75063;BME280;63981;51.052;13.754;2023-02-21T05:04:37;100177.63;;;10.47;69.03
75063;BME280;63981;51.052;13.754;2023-02-21T05:07:04;100228.81;;;10.70;69.00
75063;BME280;63981;51.052;13.754;2023-02-21T05:09:31;100159.66;;;10.26;69.20
75063;BME280;63981;51.052;13.754;2023-02-21T05:11:57;100182.81;;;10.61;69.24
75063;BME280;63981;51.052;13.754;2023-02-21T05:14:23;100121.75;;;10.42;68.71
75063;BME280;63981;51.052;13.754;2023-02-21T05:16:49;100172.69;;;10.68;68.70
75063;BME280;63981;51.052;13.754;2023-02-21T05:19:20;100094.75;;;9.98;69.62
75063;BME280;63981;51.052;13.754;2023-02-21T05:21:58;100197.56;;;10.51;69.53
75063;BME280;63981;51.052;13.754;2023-02-21T05:24:26;100200.31;;;10.62;69.46
75063;BME280;63981;51.052;13.754;2023-02-21T05:26:53;100199.50;;;10.74;69.38
75063;BME280;63981;51.052;13.754;2023-02-21T05:29:19;100128.41;;;10.20;69.42
75063;BME280;63981;51.052;13.754;2023-02-21T05:31:46;100203.63;;;10.78;69.31
75063;BME280;63981;51.052;13.754;2023-02-21T05:34:13;100206.88;;;10.56;70.11
75063;BME280;63981;51.052;13.754;2023-02-21T05:36:39;100195.56;;;10.54;69.57
75063;BME280;63981;51.052;13.754;2023-02-21T05:39:07;100214.31;;;10.50;69.85
75063;BME280;63981;51.052;13.754;2023-02-21T05:41:34;100184.81;;;10.57;68.91
75063;BME280;63981;51.052;13.754;2023-02-21T05:44:01;100202.25;;;10.85;68.77
75063;BME280;63981;51.052;13.754;2023-02-21T05:46:34;100220.16;;;10.80;68.76
75063;BME280;63981;51.052;13.754;2023-02-21T05:49:01;100215.59;;;11.09;68.21
75063;BME280;63981;51.052;13.754;2023-02-21T05:51:36;100219.59;;;11.15;67.56
75063;BME280;63981;51.052;13.754;2023-02-21T05:54:04;100185.47;;;10.61;68.75
75063;BME280;63981;51.052;13.754;2023-02-21T05:56:36;100147.69;;;10.48;68.79
75063;BME280;63981;51.052;13.754;2023-02-21T05:59:02;100224.44;;;10.96;68.75
75063;BME280;63981;51.052;13.754;2023-02-21T06:01:29;100232.97;;;10.86;69.44
75063;BME280;63981;51.052;13.754;2023-02-21T06:03:55;100232.22;;;10.84;68.96
75063;BME280;63981;51.052;13.754;2023-02-21T06:06:21;100244.06;;;11.04;68.30
75063;BME280;63981;51.052;13.754;2023-02-21T06:08:48;100238.56;;;10.82;68.72
75063;BME280;63981;51.052;13.754;2023-02-21T06:11:20;100252.38;;;10.85;69.58
75063;BME280;63981;51.052;13.754;2023-02-21T06:13:50;100248.78;;;10.86;69.09
75063;BME280;63981;51.052;13.754;2023-02-21T06:16:16;100198.09;;;10.56;69.06
75063;BME280;63981;51.052;13.754;2023-02-21T06:18:42;100254.03;;;10.74;69.87
75063;BME280;63981;51.052;13.754;2023-02-21T06:21:08;100260.34;;;10.71;69.85
75063;BME280;63981;51.052;13.754;2023-02-21T06:23:35;100229.38;;;10.87;68.85
75063;BME280;63981;51.052;13.754;2023-02-21T06:26:01;100253.97;;;11.01;68.71
75063;BME280;63981;51.052;13.754;2023-02-21T06:28:28;100256.06;;;10.83;69.54
75063;BME280;63981;51.052;13.754;2023-02-21T06:30:55;100252.78;;;10.92;68.72
75063;BME280;63981;51.052;13.754;2023-02-21T06:33:22;100259.41;;;10.72;69.33
75063;BME280;63981;51.052;13.754;2023-02-21T06:35:48;100244.78;;;10.54;69.73
75063;BME280;63981;51.052;13.754;2023-02-21T06:38:14;100278.22;;;11.06;68.60
75063;BME280;63981;51.052;13.754;2023-02-21T06:40:40;100186.47;;;10.46;68.43
75063;BME280;63981;51.052;13.754;2023-02-21T06:43:07;100287.47;;;10.73;69.63
75063;BME280;63981;51.052;13.754;2023-02-21T06:45:33;100261.69;;;10.64;69.76
75063;BME280;63981;51.052;13.754;2023-02-21T06:47:59;100296.38;;;10.98;68.43
75063;BME280;63981;51.052;13.754;2023-02-21T06:50:25;100292.78;;;10.99;68.68
75063;BME280;63981;51.052;13.754;2023-02-21T06:52:51;100202.94;;;10.49;68.88
75063;BME280;63981;51.052;13.754;2023-02-21T06:55:22;100276.34;;;10.95;68.34
75063;BME280;63981;51.052;13.754;2023-02-21T06:57:48;100292.44;;;10.90;69.68
75063;BME280;63981;51.052;13.754;2023-02-21T07:00:15;100296.59;;;10.95;69.57
75063;BME280;63981;51.052;13.754;2023-02-21T07:02:42;100302.84;;;10.79;69.11
75063;BME280;63981;51.052;13.754;2023-02-21T07:05:09;100285.91;;;10.83;69.23
75063;BME280;63981;51.052;13.754;2023-02-21T07:07:36;100308.91;;;10.81;69.67
75063;BME280;63981;51.052;13.754;2023-02-21T07:10:02;100303.06;;;10.76;70.07
75063;BME280;63981;51.052;13.754;2023-02-21T07:12:28;100312.22;;;10.98;69.41
75063;BME280;63981;51.052;13.754;2023-02-21T07:14:55;100323.91;;;11.06;68.39
75063;BME280;63981;51.052;13.754;2023-02-21T07:17:21;100320.69;;;11.15;67.88
75063;BME280;63981;51.052;13.754;2023-02-21T07:19:47;100317.19;;;11.15;68.51
75063;BME280;63981;51.052;13.754;2023-02-21T07:22:13;100326.91;;;11.14;68.17
75063;BME280;63981;51.052;13.754;2023-02-21T07:24:40;100246.63;;;10.79;67.87
75063;BME280;63981;51.052;13.754;2023-02-21T07:27:06;100323.13;;;11.31;68.10
75063;BME280;63981;51.052;13.754;2023-02-21T07:29:32;100330.22;;;11.43;67.46
75063;BME280;63981;51.052;13.754;2023-02-21T07:31:59;100305.28;;;11.22;67.79
75063;BME280;63981;51.052;13.754;2023-02-21T07:34:25;100229.50;;;10.99;66.96
75063;BME280;63981;51.052;13.754;2023-02-21T07:36:51;100348.75;;;11.81;66.52
75063;BME280;63981;51.052;13.754;2023-02-21T07:39:17;100347.22;;;11.39;67.18
75063;BME280;63981;51.052;13.754;2023-02-21T07:41:43;100340.97;;;11.28;67.71
75063;BME280;63981;51.052;13.754;2023-02-21T07:44:10;100343.97;;;11.48;67.45
75063;BME280;63981;51.052;13.754;2023-02-21T07:46:36;100347.84;;;11.56;66.80
75063;BME280;63981;51.052;13.754;2023-02-21T07:49:02;100319.03;;;11.40;66.79
75063;BME280;63981;51.052;13.754;2023-02-21T07:51:29;100346.78;;;11.45;67.69
75063;BME280;63981;51.052;13.754;2023-02-21T07:53:56;100344.16;;;11.45;67.09
75063;BME280;63981;51.052;13.754;2023-02-21T07:56:22;100352.06;;;11.58;66.75
75063;BME280;63981;51.052;13.754;2023-02-21T07:58:51;100298.97;;;11.25;67.20
75063;BME280;63981;51.052;13.754;2023-02-21T08:01:24;100325.03;;;11.29;67.07
75063;BME280;63981;51.052;13.754;2023-02-21T08:03:51;100346.72;;;11.72;66.46
75063;BME280;63981;51.052;13.754;2023-02-21T08:06:17;100352.16;;;11.31;67.41
75063;BME280;63981;51.052;13.754;2023-02-21T08:08:44;100282.78;;;10.64;68.76
75063;BME280;63981;51.052;13.754;2023-02-21T08:11:10;100312.56;;;11.31;67.21
75063;BME280;63981;51.052;13.754;2023-02-21T08:13:36;100348.41;;;11.48;67.24
75063;BME280;63981;51.052;13.754;2023-02-21T08:16:03;100329.16;;;10.93;68.82
75063;BME280;63981;51.052;13.754;2023-02-21T08:18:29;100353.56;;;11.49;67.14
75063;BME280;63981;51.052;13.754;2023-02-21T08:20:55;100345.84;;;11.34;67.95
75063;BME280;63981;51.052;13.754;2023-02-21T08:23:23;100346.25;;;11.40;67.44
75063;BME280;63981;51.052;13.754;2023-02-21T08:25:49;100240.47;;;11.05;66.99
75063;BME280;63981;51.052;13.754;2023-02-21T08:28:16;100331.28;;;11.41;67.17
75063;BME280;63981;51.052;13.754;2023-02-21T08:30:42;100358.19;;;11.59;67.20
75063;BME280;63981;51.052;13.754;2023-02-21T08:33:09;100351.22;;;11.45;67.43
75063;BME280;63981;51.052;13.754;2023-02-21T08:35:35;100331.38;;;11.27;67.80
75063;BME280;63981;51.052;13.754;2023-02-21T08:38:02;100334.44;;;11.33;66.97
75063;BME280;63981;51.052;13.754;2023-02-21T08:40:29;100353.78;;;11.46;68.07
75063;BME280;63981;51.052;13.754;2023-02-21T08:42:57;100360.66;;;11.62;67.61
75063;BME280;63981;51.052;13.754;2023-02-21T08:45:25;100364.56;;;11.69;66.97
75063;BME280;63981;51.052;13.754;2023-02-21T08:47:52;100366.25;;;11.70;66.31
75063;BME280;63981;51.052;13.754;2023-02-21T08:50:20;100364.25;;;11.73;66.38
75063;BME280;63981;51.052;13.754;2023-02-21T08:52:48;100369.31;;;11.76;66.33
75063;BME280;63981;51.052;13.754;2023-02-21T08:55:15;100333.59;;;11.71;66.20
75063;BME280;63981;51.052;13.754;2023-02-21T08:57:41;100358.88;;;11.75;66.40
75063;BME280;63981;51.052;13.754;2023-02-21T09:00:09;100373.75;;;11.76;66.40
75063;BME280;63981;51.052;13.754;2023-02-21T09:02:37;100364.59;;;11.94;66.41
75063;BME280;63981;51.052;13.754;2023-02-21T09:05:13;100366.09;;;11.98;66.08
75063;BME280;63981;51.052;13.754;2023-02-21T09:07:40;100359.81;;;12.25;64.77
75063;BME280;63981;51.052;13.754;2023-02-21T09:10:08;100368.75;;;12.35;64.61
75063;BME280;63981;51.052;13.754;2023-02-21T09:12:36;100368.94;;;12.45;64.25
75063;BME280;63981;51.052;13.754;2023-02-21T09:15:04;100368.78;;;12.22;64.72
75063;BME280;63981;51.052;13.754;2023-02-21T09:17:30;100329.91;;;12.12;64.48
75063;BME280;63981;51.052;13.754;2023-02-21T09:20:06;100366.25;;;12.21;65.14
75063;BME280;63981;51.052;13.754;2023-02-21T09:22:32;100369.84;;;12.20;64.82
75063;BME280;63981;51.052;13.754;2023-02-21T09:25:00;100350.91;;;12.38;63.96
75063;BME280;63981;51.052;13.754;2023-02-21T09:27:27;100359.69;;;12.26;64.66
75063;BME280;63981;51.052;13.754;2023-02-21T09:32:30;100364.41;;;12.70;63.64
75063;BME280;63981;51.052;13.754;2023-02-21T09:34:57;100376.25;;;12.41;64.19
75063;BME280;63981;51.052;13.754;2023-02-21T09:37:24;100321.00;;;12.49;63.27
75063;BME280;63981;51.052;13.754;2023-02-21T09:39:51;100327.88;;;12.99;61.75
75063;BME280;63981;51.052;13.754;2023-02-21T09:42:18;100366.63;;;13.60;61.38
75063;BME280;63981;51.052;13.754;2023-02-21T09:44:47;100361.75;;;13.42;60.80
75063;BME280;63981;51.052;13.754;2023-02-21T09:47:26;100320.22;;;13.08;61.00
75063;BME280;63981;51.052;13.754;2023-02-21T09:50:00;100309.16;;;12.79;61.81
75063;BME280;63981;51.052;13.754;2023-02-21T09:52:34;100363.16;;;13.81;59.91
75063;BME280;63981;51.052;13.754;2023-02-21T09:55:06;100378.94;;;13.83;59.13
75063;BME280;63981;51.052;13.754;2023-02-21T09:57:35;100383.06;;;13.52;60.61
75063;BME280;63981;51.052;13.754;2023-02-21T10:00:05;100366.09;;;13.43;61.37
75063;BME280;63981;51.052;13.754;2023-02-21T10:02:47;100356.50;;;13.76;60.53
75063;BME280;63981;51.052;13.754;2023-02-21T10:05:24;100382.94;;;13.42;60.91
75063;BME280;63981;51.052;13.754;2023-02-21T10:08:16;100378.25;;;13.46;61.32
75063;BME280;63981;51.052;13.754;2023-02-21T10:10:46;100354.59;;;13.20;60.80
75063;BME280;63981;51.052;13.754;2023-02-21T10:13:38;100375.34;;;13.38;60.95
75063;BME280;63981;51.052;13.754;2023-02-21T10:16:15;100377.38;;;13.34;61.27
75063;BME280;63981;51.052;13.754;2023-02-21T10:19:20;100396.00;;;13.09;61.86
75063;BME280;63981;51.052;13.754;2023-02-21T10:21:49;100386.88;;;13.13;61.63
75063;BME280;63981;51.052;13.754;2023-02-21T10:24:20;100376.00;;;12.57;63.18
75063;BME280;63981;51.052;13.754;2023-02-21T10:26:59;100363.47;;;12.95;62.09
75063;BME280;63981;51.052;13.754;2023-02-21T10:32:01;100403.75;;;12.75;62.70
75063;BME280;63981;51.052;13.754;2023-02-21T10:34:31;100392.28;;;13.11;62.21
75063;BME280;63981;51.052;13.754;2023-02-21T10:37:03;100374.75;;;13.45;61.10
75063;BME280;63981;51.052;13.754;2023-02-21T10:39:40;100347.47;;;13.78;59.37
75063;BME280;63981;51.052;13.754;2023-02-21T10:42:29;100388.00;;;13.45;60.61
75063;BME280;63981;51.052;13.754;2023-02-21T10:44:56;100394.56;;;13.28;60.60
75063;BME280;63981;51.052;13.754;2023-02-21T10:48:05;100395.78;;;13.36;60.12
75063;BME280;63981;51.052;13.754;2023-02-21T10:50:39;100399.25;;;13.12;61.34
75063;BME280;63981;51.052;13.754;2023-02-21T10:53:07;100396.78;;;12.74;61.94
75063;BME280;63981;51.052;13.754;2023-02-21T10:55:34;100374.19;;;12.57;61.99
75063;BME280;63981;51.052;13.754;2023-02-21T10:58:08;100396.94;;;13.20;61.00
75063;BME280;63981;51.052;13.754;2023-02-21T11:00:39;100391.28;;;13.01;61.46
75063;BME280;63981;51.052;13.754;2023-02-21T11:05:52;100393.13;;;13.12;60.90
75063;BME280;63981;51.052;13.754;2023-02-21T11:08:37;100401.41;;;13.07;61.64
75063;BME280;63981;51.052;13.754;2023-02-21T11:11:05;100401.28;;;13.21;61.19
75063;BME280;63981;51.052;13.754;2023-02-21T11:13:32;100413.25;;;12.90;61.72
75063;BME280;63981;51.052;13.754;2023-02-21T11:16:18;100402.53;;;12.68;62.17
75063;BME280;63981;51.052;13.754;2023-02-21T11:18:45;100399.69;;;12.58;62.69
75063;BME280;63981;51.052;13.754;2023-02-21T11:21:15;100393.34;;;12.48;62.86
75063;BME280;63981;51.052;13.754;2023-02-21T11:24:03;100407.84;;;12.55;63.01
75063;BME280;63981;51.052;13.754;2023-02-21T11:26:43;100368.88;;;12.21;63.64
75063;BME280;63981;51.052;13.754;2023-02-21T11:29:13;100390.69;;;12.12;64.12
75063;BME280;63981;51.052;13.754;2023-02-21T11:31:40;100394.56;;;12.19;64.17
75063;BME280;63981;51.052;13.754;2023-02-21T11:34:09;100386.75;;;12.30;63.16
75063;BME280;63981;51.052;13.754;2023-02-21T11:36:40;100321.75;;;12.15;63.32
75063;BME280;63981;51.052;13.754;2023-02-21T11:39:25;100394.34;;;12.22;64.32
75063;BME280;63981;51.052;13.754;2023-02-21T11:41:58;100385.66;;;12.45;63.89
75063;BME280;63981;51.052;13.754;2023-02-21T11:44:35;100383.88;;;12.69;63.18
75063;BME280;63981;51.052;13.754;2023-02-21T11:47:20;100390.53;;;12.75;62.63
75063;BME280;63981;51.052;13.754;2023-02-21T11:52:23;100360.81;;;12.72;62.26
75063;BME280;63981;51.052;13.754;2023-02-21T11:54:50;100395.28;;;12.83;62.22
75063;BME280;63981;51.052;13.754;2023-02-21T12:02:58;100395.84;;;12.38;63.93
75063;BME280;63981;51.052;13.754;2023-02-21T12:05:38;100388.75;;;12.39;63.98
75063;BME280;63981;51.052;13.754;2023-02-21T12:10:58;100386.97;;;12.27;64.26
75063;BME280;63981;51.052;13.754;2023-02-21T12:22:07;100376.81;;;12.21;64.52
75063;BME280;63981;51.052;13.754;2023-02-21T12:38:32;100360.94;;;12.70;63.41
75063;BME280;63981;51.052;13.754;2023-02-21T12:44:02;100349.16;;;12.74;63.14
75063;BME280;63981;51.052;13.754;2023-02-21T12:46:37;100334.28;;;12.36;63.74
75063;BME280;63981;51.052;13.754;2023-02-21T12:49:13;100344.72;;;12.75;62.96
75063;BME280;63981;51.052;13.754;2023-02-21T12:51:45;100350.19;;;13.32;61.35
75063;BME280;63981;51.052;13.754;2023-02-21T12:54:17;100327.19;;;13.33;60.88
75063;BME280;63981;51.052;13.754;2023-02-21T12:56:54;100348.09;;;13.24;61.05
75063;BME280;63981;51.052;13.754;2023-02-21T12:59:24;100340.81;;;13.50;60.34
75063;BME280;63981;51.052;13.754;2023-02-21T13:02:08;100328.41;;;13.28;60.96
75063;BME280;63981;51.052;13.754;2023-02-21T13:04:51;100341.63;;;13.05;61.85
75063;BME280;63981;51.052;13.754;2023-02-21T13:07:49;100327.78;;;13.36;61.17
75063;BME280;63981;51.052;13.754;2023-02-21T13:10:21;100339.66;;;13.19;61.56
75063;BME280;63981;51.052;13.754;2023-02-21T13:13:10;100320.94;;;13.34;61.28
75063;BME280;63981;51.052;13.754;2023-02-21T13:15:41;100325.16;;;13.12;61.98
75063;BME280;63981;51.052;13.754;2023-02-21T13:18:22;100273.03;;;13.02;61.44
75063;BME280;63981;51.052;13.754;2023-02-21T13:20:59;100295.28;;;13.23;61.36
75063;BME280;63981;51.052;13.754;2023-02-21T13:23:47;100316.13;;;13.04;61.46
75063;BME280;63981;51.052;13.754;2023-02-21T13:29:17;100324.44;;;13.10;62.37
75063;BME280;63981;51.052;13.754;2023-02-21T13:31:44;100309.88;;;13.05;61.43
75063;BME280;63981;51.052;13.754;2023-02-21T13:34:12;100318.97;;;12.89;62.16
75063;BME280;63981;51.052;13.754;2023-02-21T13:36:45;100312.59;;;12.92;62.22
75063;BME280;63981;51.052;13.754;2023-02-21T13:39:26;100319.91;;;12.64;62.91
75063;BME280;63981;51.052;13.754;2023-02-21T13:42:07;100323.00;;;12.82;62.78
75063;BME280;63981;51.052;13.754;2023-02-21T13:44:41;100326.44;;;12.95;62.11
75063;BME280;63981;51.052;13.754;2023-02-21T13:47:15;100315.00;;;12.71;62.49
75063;BME280;63981;51.052;13.754;2023-02-21T13:49:46;100328.56;;;12.43;64.00
75063;BME280;63981;51.052;13.754;2023-02-21T14:08:41;100333.84;;;12.43;64.10
75063;BME280;63981;51.052;13.754;2023-02-21T14:13:39;100338.63;;;12.37;63.86
75063;BME280;63981;51.052;13.754;2023-02-21T14:18:46;100310.41;;;12.38;63.83
75063;BME280;63981;51.052;13.754;2023-02-21T14:24:20;100338.06;;;12.45;63.43
75063;BME280;63981;51.052;13.754;2023-02-21T14:29:44;100333.38;;;12.49;64.00
75063;BME280;63981;51.052;13.754;2023-02-21T14:34:51;100335.41;;;12.45;63.82
75063;BME280;63981;51.052;13.754;2023-02-21T14:39:57;100339.03;;;12.44;63.73
75063;BME280;63981;51.052;13.754;2023-02-21T14:42:53;100314.84;;;12.37;64.15
75063;BME280;63981;51.052;13.754;2023-02-21T14:51:46;100328.91;;;12.38;64.56
75063;BME280;63981;51.052;13.754;2023-02-21T15:03:19;100329.97;;;12.59;64.71
75063;BME280;63981;51.052;13.754;2023-02-21T15:08:19;100324.63;;;12.48;64.31
75063;BME280;63981;51.052;13.754;2023-02-21T15:10:47;100318.09;;;12.41;64.11
75063;BME280;63981;51.052;13.754;2023-02-21T15:13:29;100296.19;;;12.15;65.06
75063;BME280;63981;51.052;13.754;2023-02-21T15:18:35;100305.34;;;11.86;66.01